createdAt,value
2022-08-19T00:01:28.831Z,76.05
2022-08-19T00:04:01.215Z,74.93
2022-08-19T00:06:29.939Z,79.28
2022-08-19T00:08:56.907Z,78.20
2022-08-19T00:11:28.533Z,75.93
2022-08-19T00:13:57.498Z,81.90
2022-08-19T00:16:31.602Z,76.93
2022-08-19T00:18:58.032Z,77.97
2022-08-19T00:21:25.577Z,77.85
2022-08-19T00:23:51.970Z,75.80
2022-08-19T00:26:18.588Z,71.78
2022-08-19T00:28:44.995Z,75.22
2022-08-19T00:31:11.458Z,75.65
2022-08-19T00:33:37.896Z,80.30
2022-08-19T00:36:10.343Z,80.85
2022-08-19T00:38:38.183Z,79.28
2022-08-19T00:41:10.493Z,77.65
2022-08-19T00:43:37.289Z,79.95
2022-08-19T00:46:06.838Z,80.22
2022-08-19T00:48:34.499Z,79.57
2022-08-19T00:51:01.467Z,80.82
2022-08-19T00:53:32.393Z,77.05
2022-08-19T00:56:00.677Z,79.40
2022-08-19T00:58:29.789Z,84.60
2022-08-19T01:00:56.167Z,85.32
2022-08-19T01:03:22.716Z,80.45
2022-08-19T01:05:51.153Z,77.10
2022-08-19T01:08:18.349Z,76.32
2022-08-19T01:10:47.020Z,81.25
2022-08-19T01:13:15.355Z,81.93
2022-08-19T01:15:46.134Z,80.10
2022-08-19T01:18:14.487Z,76.88
2022-08-19T01:20:41.663Z,73.78
2022-08-19T01:23:09.351Z,75.32
2022-08-19T01:25:47.444Z,74.90
2022-08-19T01:28:18.835Z,79.43
2022-08-19T01:31:00.763Z,77.80
2022-08-19T01:33:27.225Z,79.70
2022-08-19T01:35:53.639Z,77.60
2022-08-19T01:38:22.238Z,83.10
2022-08-19T01:40:48.665Z,84.55
2022-08-19T01:43:15.406Z,85.97
2022-08-19T01:45:42.154Z,84.97
2022-08-19T01:48:08.745Z,85.68
2022-08-19T01:50:35.737Z,88.38
2022-08-19T01:53:07.761Z,80.95
2022-08-19T01:55:35.866Z,82.05
2022-08-19T01:58:08.425Z,76.93
2022-08-19T02:00:35.359Z,81.63
2022-08-19T02:03:04.448Z,80.00
2022-08-19T02:05:30.844Z,78.57
2022-08-19T02:07:58.171Z,85.55
2022-08-19T02:10:24.692Z,82.97
2022-08-19T02:12:52.552Z,78.10
2022-08-19T02:15:20.586Z,81.10
2022-08-19T02:17:47.262Z,83.55
2022-08-19T02:20:16.244Z,85.53
2022-08-19T02:22:43.421Z,84.97
2022-08-19T02:25:16.012Z,84.82
2022-08-19T02:27:42.867Z,86.57
2022-08-19T02:30:14.062Z,91.82
2022-08-19T02:32:44.515Z,94.65
2022-08-19T02:35:14.666Z,92.88
2022-08-19T02:38:00.982Z,85.78
2022-08-19T02:40:28.097Z,84.70
2022-08-19T02:42:54.868Z,87.78
2022-08-19T02:45:21.499Z,91.65
2022-08-19T02:47:48.086Z,94.47
2022-08-19T02:50:15.567Z,94.40
2022-08-19T02:52:42.003Z,97.30
2022-08-19T02:55:08.775Z,104.18
2022-08-19T02:57:39.497Z,103.63
2022-08-19T03:00:08.109Z,98.63
2022-08-19T03:02:34.510Z,94.63
2022-08-19T03:05:03.414Z,93.25
2022-08-19T03:07:29.834Z,109.65
2022-08-19T03:09:59.131Z,92.25
2022-08-19T03:12:25.527Z,103.25
2022-08-19T03:14:53.036Z,100.85
2022-08-19T03:17:19.749Z,105.35
2022-08-19T03:19:46.142Z,103.95
2022-08-19T03:22:15.378Z,107.47
2022-08-19T03:24:41.730Z,101.95
2022-08-19T03:27:08.123Z,107.38
2022-08-19T03:29:43.085Z,103.20
2022-08-19T03:32:27.234Z,100.78
2022-08-19T03:34:57.962Z,115.10
2022-08-19T03:37:24.377Z,116.40
2022-08-19T03:39:52.402Z,114.03
2022-08-19T03:42:32.952Z,119.25
2022-08-19T03:45:05.507Z,114.40
2022-08-19T03:47:31.871Z,120.45
2022-08-19T03:49:58.529Z,118.03
2022-08-19T03:52:24.957Z,113.20
2022-08-19T03:54:51.347Z,123.07
2022-08-19T03:57:19.970Z,126.38
2022-08-19T03:59:46.309Z,135.60
2022-08-19T04:02:13.477Z,162.10
2022-08-19T04:04:41.319Z,231.75
2022-08-19T04:07:07.820Z,173.10
2022-08-19T04:09:34.871Z,196.45
2022-08-19T04:12:01.314Z,294.83
2022-08-19T04:14:31.184Z,244.25
2022-08-19T04:16:58.464Z,313.20
2022-08-19T04:19:24.858Z,303.88
2022-08-19T04:21:52.610Z,396.02
2022-08-19T04:24:21.436Z,260.60
2022-08-19T04:26:49.034Z,376.55
2022-08-19T04:29:19.683Z,261.60
2022-08-19T04:31:46.461Z,428.15
2022-08-19T04:34:14.309Z,496.63
2022-08-19T04:36:42.254Z,544.63
2022-08-19T04:39:10.310Z,401.58
2022-08-19T04:41:55.421Z,421.50
2022-08-19T04:44:22.151Z,334.52
2022-08-19T04:46:51.005Z,296.20
2022-08-19T04:49:19.298Z,240.90
2022-08-19T04:51:48.267Z,271.77
2022-08-19T04:54:15.649Z,251.25
2022-08-19T04:56:55.154Z,248.77
2022-08-19T04:59:21.848Z,230.23
2022-08-19T05:01:50.653Z,316.75
2022-08-19T05:04:21.439Z,297.00
2022-08-19T05:06:48.850Z,204.90
2022-08-19T05:09:15.738Z,246.38
2022-08-19T05:11:42.274Z,205.10
2022-08-19T05:14:09.430Z,194.57
2022-08-19T05:16:35.888Z,178.65
2022-08-19T05:19:20.791Z,172.68
2022-08-19T05:22:05.957Z,178.82
2022-08-19T05:24:35.021Z,163.50
2022-08-19T05:27:03.501Z,152.07
2022-08-19T05:29:36.194Z,126.22
2022-08-19T05:32:05.958Z,122.50
2022-08-19T05:34:33.917Z,130.40
2022-08-19T05:37:00.581Z,141.30
2022-08-19T05:39:27.952Z,129.90
2022-08-19T05:41:58.005Z,147.80
2022-08-19T05:44:25.706Z,133.77
2022-08-19T05:46:58.199Z,133.43
2022-08-19T05:49:26.294Z,160.68
2022-08-19T05:51:52.725Z,157.90
2022-08-19T05:54:19.356Z,161.57
2022-08-19T05:56:48.442Z,161.82
2022-08-19T05:59:15.795Z,140.45
2022-08-19T06:01:43.754Z,124.78
2022-08-19T06:04:10.215Z,119.60
2022-08-19T06:06:36.705Z,115.03
2022-08-19T06:09:04.504Z,115.60
2022-08-19T06:11:37.099Z,112.03
2022-08-19T06:14:05.777Z,111.28
2022-08-19T06:16:34.916Z,113.22
2022-08-19T06:19:01.813Z,98.45
2022-08-19T06:21:29.944Z,112.20
2022-08-19T06:23:57.305Z,109.80
2022-08-19T06:26:24.443Z,110.60
2022-08-19T06:28:51.319Z,96.82
2022-08-19T06:31:19.146Z,105.10
2022-08-19T06:33:46.028Z,97.68
2022-08-19T06:36:32.522Z,99.72
2022-08-19T06:39:00.187Z,90.20
2022-08-19T06:41:26.838Z,85.35
2022-08-19T06:43:54.188Z,87.55
2022-08-19T06:46:23.215Z,81.05
2022-08-19T06:48:49.899Z,88.53
2022-08-19T06:51:19.685Z,79.13
2022-08-19T06:56:22.837Z,90.55
2022-08-19T06:58:52.715Z,94.97
2022-08-19T07:01:19.773Z,97.13
2022-08-19T07:03:49.906Z,112.20
2022-08-19T07:06:41.199Z,123.10
2022-08-19T07:09:06.141Z,131.35
2022-08-19T07:11:34.166Z,130.73
2022-08-19T07:14:01.170Z,129.57
2022-08-19T07:16:29.297Z,108.25
2022-08-19T07:18:57.486Z,96.70
2022-08-19T07:21:29.485Z,90.28
2022-08-19T07:23:56.920Z,100.03
2022-08-19T07:26:28.012Z,105.45
2022-08-19T07:28:55.113Z,144.35
2022-08-19T07:31:23.815Z,132.50
2022-08-19T07:33:53.334Z,145.05
2022-08-19T07:36:22.388Z,133.73
2022-08-19T07:38:52.229Z,130.90
2022-08-19T07:41:22.914Z,115.80
2022-08-19T07:43:50.250Z,119.40
2022-08-19T07:46:17.575Z,111.65
2022-08-19T07:48:46.299Z,90.78
2022-08-19T07:51:14.916Z,77.20
2022-08-19T07:54:01.363Z,63.20
2022-08-19T07:56:27.909Z,63.92
2022-08-19T08:01:23.087Z,55.92
2022-08-19T08:04:08.871Z,50.45
2022-08-19T08:06:53.915Z,52.33
2022-08-19T08:09:23.285Z,53.88
2022-08-19T08:11:52.872Z,49.15
2022-08-19T08:14:34.908Z,48.97
2022-08-19T08:17:05.127Z,50.50
2022-08-19T08:22:04.116Z,61.50
2022-08-19T08:24:34.648Z,54.40
2022-08-19T08:27:01.684Z,60.20
2022-08-19T08:29:34.895Z,56.90
2022-08-19T08:32:02.509Z,60.30
2022-08-19T08:34:28.937Z,62.17
2022-08-19T08:36:55.392Z,72.65
2022-08-19T08:39:22.535Z,72.45
2022-08-19T08:42:10.424Z,83.35
2022-08-19T08:47:26.212Z,100.57
2022-08-19T08:49:54.745Z,93.05
2022-08-19T08:52:23.703Z,97.97
2022-08-19T08:54:55.397Z,104.00
2022-08-19T08:57:45.079Z,104.10
2022-08-19T09:00:16.163Z,97.13
2022-08-19T09:02:43.513Z,98.00
2022-08-19T09:05:11.009Z,102.50
2022-08-19T09:07:54.311Z,108.43
2022-08-19T09:10:34.364Z,107.53
2022-08-19T09:13:09.496Z,105.55
2022-08-19T09:15:39.638Z,109.53
2022-08-19T09:18:08.371Z,101.25
2022-08-19T09:20:43.047Z,93.60
2022-08-19T09:23:11.737Z,83.82
2022-08-19T09:25:38.600Z,81.15
2022-08-19T09:28:05.600Z,69.82
2022-08-19T09:30:35.551Z,62.40
2022-08-19T09:33:02.193Z,60.15
2022-08-19T09:35:30.425Z,51.25
2022-08-19T09:37:59.537Z,52.47
2022-08-19T09:40:27.097Z,54.58
2022-08-19T09:42:58.085Z,57.45
2022-08-19T09:45:24.846Z,64.63
2022-08-19T09:47:54.110Z,63.78
2022-08-19T09:53:12.327Z,69.53
2022-08-19T09:55:42.981Z,68.55
2022-08-19T09:58:09.818Z,70.70
2022-08-19T10:00:38.144Z,77.95
2022-08-19T10:03:04.672Z,75.90
2022-08-19T10:05:55.200Z,81.00
2022-08-19T10:08:26.814Z,92.97
2022-08-19T10:10:54.100Z,103.03
2022-08-19T10:13:24.508Z,104.75
2022-08-19T10:15:53.811Z,104.40
2022-08-19T10:18:22.892Z,115.32
2022-08-19T10:20:51.346Z,121.70
2022-08-19T10:23:19.393Z,121.07
2022-08-19T10:25:45.727Z,126.05
2022-08-19T10:28:14.711Z,126.43
2022-08-19T10:30:41.405Z,121.35
2022-08-19T10:33:11.090Z,119.18
2022-08-19T10:35:56.385Z,79.28
2022-08-19T10:40:58.638Z,61.60
2022-08-19T10:43:25.889Z,62.03
2022-08-19T10:45:59.450Z,60.47
2022-08-19T10:48:26.093Z,72.00
2022-08-19T10:51:22.863Z,69.35
2022-08-19T10:56:49.126Z,72.07
2022-08-19T10:59:16.298Z,88.40
2022-08-19T11:01:43.852Z,98.68
2022-08-19T11:04:14.476Z,100.70
2022-08-19T11:06:41.900Z,106.90
2022-08-19T11:09:08.864Z,112.22
2022-08-19T11:11:40.664Z,127.22
2022-08-19T11:14:11.889Z,133.50
2022-08-19T11:16:41.493Z,126.68
2022-08-19T11:19:11.652Z,124.65
2022-08-19T11:21:40.049Z,118.38
2022-08-19T11:24:08.179Z,99.07
2022-08-19T11:26:35.029Z,95.15
2022-08-19T11:29:02.086Z,111.15
2022-08-19T11:31:29.790Z,93.30
2022-08-19T11:34:00.659Z,96.60
2022-08-19T11:36:27.600Z,100.70
2022-08-19T11:38:54.465Z,101.20
2022-08-19T11:41:23.815Z,101.15
2022-08-19T11:43:50.966Z,101.20
2022-08-19T11:46:17.861Z,103.18
2022-08-19T11:48:44.616Z,110.15
2022-08-19T11:51:15.431Z,116.57
2022-08-19T11:53:42.308Z,116.13
2022-08-19T11:56:09.860Z,131.25
2022-08-19T11:58:37.084Z,133.30
2022-08-19T12:01:06.530Z,134.38
2022-08-19T12:03:32.961Z,139.10
2022-08-19T12:05:59.348Z,137.55
2022-08-19T12:08:29.442Z,129.23
2022-08-19T12:10:55.819Z,136.27
2022-08-19T12:13:22.183Z,125.03
2022-08-19T12:15:48.997Z,138.05
2022-08-19T12:18:15.452Z,146.38
2022-08-19T12:20:43.095Z,143.13
2022-08-19T12:23:10.486Z,138.43
2022-08-19T12:25:38.001Z,137.40
2022-08-19T12:28:05.029Z,127.15
2022-08-19T12:30:31.655Z,129.20
2022-08-19T12:32:58.263Z,128.38
2022-08-19T12:35:24.688Z,130.13
2022-08-19T12:37:55.811Z,128.77
2022-08-19T12:40:24.111Z,136.48
2022-08-19T12:42:52.927Z,131.75
2022-08-19T12:45:20.106Z,136.05
2022-08-19T12:47:47.823Z,130.60
2022-08-19T12:50:16.110Z,123.35
2022-08-19T12:52:43.301Z,114.70
2022-08-19T12:55:09.992Z,113.40
2022-08-19T12:57:36.526Z,116.63
2022-08-19T13:00:14.514Z,112.32
2022-08-19T13:02:44.789Z,109.88
2022-08-19T13:05:12.918Z,109.30
2022-08-19T13:07:42.268Z,110.60
2022-08-19T13:10:09.926Z,113.65
2022-08-19T13:12:36.626Z,115.05
2022-08-19T13:15:11.107Z,112.15
2022-08-19T13:17:38.257Z,109.45
2022-08-19T13:20:06.350Z,104.82
2022-08-19T13:22:32.828Z,101.80
2022-08-19T13:24:59.250Z,96.03
2022-08-19T13:27:25.675Z,99.15
2022-08-19T13:30:10.885Z,99.65
2022-08-19T13:32:55.979Z,105.73
2022-08-19T13:35:22.423Z,104.47
2022-08-19T13:37:48.865Z,107.50
2022-08-19T13:40:19.289Z,114.25
2022-08-19T13:42:47.352Z,107.13
2022-08-19T13:45:15.949Z,107.38
2022-08-19T13:47:45.776Z,110.20
2022-08-19T13:50:13.397Z,109.10
2022-08-19T13:52:40.651Z,107.35
2022-08-19T13:55:07.551Z,106.68
2022-08-19T13:57:34.069Z,101.97
2022-08-19T14:00:00.731Z,99.60
2022-08-19T14:02:27.551Z,102.00
2022-08-19T14:04:54.056Z,93.40
2022-08-19T14:07:23.255Z,89.70
2022-08-19T14:09:49.703Z,88.75
2022-08-19T14:12:28.177Z,88.38
2022-08-19T14:14:55.557Z,91.97
2022-08-19T14:17:22.505Z,97.13
2022-08-19T14:19:49.073Z,92.88
2022-08-19T14:22:15.549Z,95.38
2022-08-19T14:24:48.954Z,99.88
2022-08-19T14:27:15.758Z,90.93
2022-08-19T14:29:42.102Z,89.82
2022-08-19T14:32:08.558Z,93.28
2022-08-19T14:34:38.302Z,85.90
2022-08-19T14:37:04.810Z,88.40
2022-08-19T14:39:31.204Z,82.50
2022-08-19T14:41:58.265Z,79.05
2022-08-19T14:44:24.720Z,75.72
2022-08-19T14:46:52.846Z,74.10
2022-08-19T14:49:20.943Z,81.82
2022-08-19T14:51:58.490Z,70.53
2022-08-19T14:54:25.256Z,72.30
2022-08-19T14:56:53.741Z,69.05
2022-08-19T14:59:21.009Z,65.95
2022-08-19T15:01:47.466Z,62.05
2022-08-19T15:04:13.963Z,67.78
2022-08-19T15:06:43.611Z,79.85
2022-08-19T15:09:10.714Z,66.82
2022-08-19T15:11:38.087Z,69.03
2022-08-19T15:14:06.184Z,71.00
2022-08-19T15:16:33.200Z,70.90
2022-08-19T15:19:00.891Z,73.32
2022-08-19T15:21:28.042Z,74.25
2022-08-19T15:23:55.530Z,73.03
2022-08-19T15:26:22.206Z,73.05
2022-08-19T15:28:48.967Z,71.32
2022-08-19T15:31:25.293Z,71.53
2022-08-19T15:33:58.137Z,72.97
2022-08-19T15:36:26.204Z,71.30
2022-08-19T15:38:53.267Z,71.68
2022-08-19T15:41:24.475Z,69.25
2022-08-19T15:43:53.276Z,72.72
2022-08-19T15:46:21.913Z,65.63
2022-08-19T15:48:54.724Z,66.57
2022-08-19T15:51:23.954Z,68.90
2022-08-19T15:53:50.979Z,73.32
2022-08-19T15:56:17.568Z,73.63
2022-08-19T15:59:02.479Z,70.47
2022-08-19T16:01:47.938Z,69.13
2022-08-19T16:04:36.264Z,72.30
2022-08-19T16:07:03.456Z,65.28
2022-08-19T16:09:31.115Z,65.10
2022-08-19T16:12:02.558Z,60.38
2022-08-19T16:14:29.845Z,60.58
2022-08-19T16:16:56.952Z,65.63
2022-08-19T16:19:24.367Z,58.55
2022-08-19T16:21:52.523Z,56.72
2022-08-19T16:24:20.048Z,61.80
2022-08-19T16:26:46.927Z,56.65
2022-08-19T16:29:14.246Z,56.47
2022-08-19T16:31:44.356Z,59.75
2022-08-19T16:34:11.067Z,62.00
2022-08-19T16:36:41.744Z,58.65
2022-08-19T16:39:09.219Z,60.25
2022-08-19T16:41:37.115Z,58.90
2022-08-19T16:44:04.750Z,56.28
2022-08-19T16:46:31.109Z,63.78
2022-08-19T16:48:59.389Z,59.70
2022-08-19T16:51:25.862Z,59.42
2022-08-19T16:53:52.972Z,59.85
2022-08-19T16:56:20.260Z,58.25
2022-08-19T16:58:46.945Z,69.68
2022-08-19T17:01:13.729Z,62.20
2022-08-19T17:03:40.235Z,59.17
2022-08-19T17:06:18.373Z,60.40
2022-08-19T17:08:48.810Z,63.50
2022-08-19T17:11:18.492Z,63.00
2022-08-19T17:13:45.474Z,62.20
2022-08-19T17:16:14.732Z,52.75
2022-08-19T17:18:41.158Z,54.58
2022-08-19T17:21:07.485Z,56.13
2022-08-19T17:23:42.550Z,53.03
2022-08-19T17:26:09.835Z,51.83
2022-08-19T17:28:45.323Z,46.80
2022-08-19T17:31:12.029Z,49.10
2022-08-19T17:33:41.029Z,44.97
2022-08-19T17:36:08.484Z,46.80
2022-08-19T17:38:35.886Z,47.28
2022-08-19T17:41:05.941Z,42.13
2022-08-19T17:43:40.014Z,39.45
2022-08-19T17:46:11.215Z,35.45
2022-08-19T17:48:40.452Z,40.53
2022-08-19T17:51:14.590Z,35.20
2022-08-19T17:53:41.376Z,35.75
2022-08-19T17:56:07.895Z,36.22
2022-08-19T17:58:34.655Z,31.35
2022-08-19T18:01:02.787Z,33.50
2022-08-19T18:03:30.252Z,35.97
2022-08-19T18:05:58.565Z,30.45
2022-08-19T18:08:25.603Z,34.08
2022-08-19T18:10:52.049Z,29.23
2022-08-19T18:13:18.828Z,27.58
2022-08-19T18:15:45.351Z,27.80
2022-08-19T18:18:15.654Z,26.60
2022-08-19T18:20:42.591Z,25.98
2022-08-19T18:23:45.532Z,31.55
2022-08-19T18:25:55.785Z,28.13
2022-08-19T18:28:23.786Z,26.58
2022-08-19T18:30:50.125Z,29.35
2022-08-19T18:33:16.670Z,22.33
2022-08-19T18:35:47.400Z,25.42
2022-08-19T18:38:33.397Z,27.63
2022-08-19T18:41:18.466Z,26.60
2022-08-19T18:44:03.422Z,24.45
2022-08-19T18:46:48.308Z,24.05
2022-08-19T18:49:23.191Z,22.48
2022-08-19T18:51:51.284Z,25.90
2022-08-19T18:54:18.823Z,25.27
2022-08-19T18:56:45.461Z,25.23
2022-08-19T18:59:14.781Z,27.55
2022-08-19T19:01:52.201Z,22.92
2022-08-19T19:04:20.709Z,27.75
2022-08-19T19:06:47.471Z,29.67
2022-08-19T19:09:17.451Z,27.02
2022-08-19T19:11:44.946Z,29.42
2022-08-19T19:14:23.198Z,24.45
2022-08-19T19:17:00.244Z,26.13
2022-08-19T19:19:26.695Z,26.80
2022-08-19T19:21:53.167Z,30.33
2022-08-19T19:24:21.231Z,28.23
2022-08-19T19:26:48.921Z,31.27
2022-08-19T19:29:16.902Z,31.23
2022-08-19T19:31:44.191Z,33.78
2022-08-19T19:34:15.468Z,29.83
2022-08-19T19:36:57.644Z,32.25
2022-08-19T19:39:45.014Z,37.78
2022-08-19T19:42:12.580Z,41.80
2022-08-19T19:44:40.910Z,36.45
2022-08-19T19:47:13.709Z,31.27
2022-08-19T19:49:57.906Z,29.90
2022-08-19T19:52:26.822Z,29.40
2022-08-19T19:54:56.999Z,27.15
2022-08-19T19:57:23.804Z,31.05
2022-08-19T19:59:51.421Z,33.47
2022-08-19T20:02:18.240Z,27.00
2022-08-19T20:04:45.078Z,29.55
2022-08-19T20:07:14.485Z,27.17
2022-08-19T20:09:58.768Z,31.90
2022-08-19T20:12:26.378Z,27.58
2022-08-19T20:14:52.795Z,31.08
2022-08-19T20:17:20.496Z,33.80
2022-08-19T20:19:47.791Z,28.08
2022-08-19T20:22:14.484Z,35.17
2022-08-19T20:24:42.544Z,31.25
2022-08-19T20:27:10.644Z,33.30
2022-08-19T20:29:39.208Z,35.72
2022-08-19T20:32:06.798Z,40.42
2022-08-19T20:34:33.803Z,40.75
2022-08-19T20:37:00.217Z,34.53
2022-08-19T20:39:26.600Z,37.10
2022-08-19T20:41:52.993Z,40.20
2022-08-19T20:44:19.351Z,38.15
2022-08-19T20:46:54.691Z,37.33
2022-08-19T20:49:22.805Z,43.78
2022-08-19T20:51:54.642Z,45.10
2022-08-19T20:54:21.411Z,45.25
2022-08-19T20:56:47.901Z,44.00
2022-08-19T20:59:14.458Z,46.70
2022-08-19T21:01:41.065Z,46.70
2022-08-19T21:04:07.472Z,43.03
2022-08-19T21:06:34.052Z,48.83
2022-08-19T21:09:00.470Z,39.88
2022-08-19T21:11:27.037Z,40.22
2022-08-19T21:13:53.370Z,41.35
2022-08-19T21:16:19.762Z,35.08
2022-08-19T21:18:46.111Z,37.40
2022-08-19T21:21:12.543Z,43.75
2022-08-19T21:23:38.912Z,38.88
2022-08-19T21:26:05.314Z,39.63
2022-08-19T21:28:35.908Z,41.40
2022-08-19T21:31:03.647Z,38.35
2022-08-19T21:33:35.348Z,35.65
2022-08-19T21:36:04.117Z,40.90
2022-08-19T21:38:31.004Z,37.50
2022-08-19T21:40:57.595Z,43.08
2022-08-19T21:43:24.190Z,41.08
2022-08-19T21:45:51.050Z,47.00
2022-08-19T21:48:17.864Z,38.35
2022-08-19T21:50:45.982Z,40.30
2022-08-19T21:53:17.663Z,36.10
2022-08-19T21:55:46.111Z,37.30
2022-08-19T21:58:19.542Z,34.95
2022-08-19T22:00:55.824Z,33.05
2022-08-19T22:03:22.304Z,31.63
2022-08-19T22:05:48.693Z,35.35
2022-08-19T22:08:15.262Z,29.92
2022-08-19T22:10:41.735Z,33.15
2022-08-19T22:13:09.466Z,28.35
2022-08-19T22:15:35.873Z,27.02
2022-08-19T22:18:02.297Z,25.88
2022-08-19T22:20:30.169Z,28.30
2022-08-19T22:22:58.002Z,22.58
2022-08-19T22:25:30.089Z,22.92
2022-08-19T22:28:00.544Z,25.73
2022-08-19T22:30:28.085Z,22.42
2022-08-19T22:33:01.366Z,26.42
2022-08-19T22:35:31.349Z,22.70
2022-08-19T22:37:59.032Z,25.10
2022-08-19T22:40:25.813Z,26.77
2022-08-19T22:43:03.366Z,27.35
2022-08-19T22:45:30.528Z,24.15
2022-08-19T22:47:57.321Z,24.60
2022-08-19T22:50:24.038Z,28.38
2022-08-19T22:52:57.736Z,24.60
2022-08-19T22:55:25.259Z,25.65
2022-08-19T22:57:53.364Z,26.88
2022-08-19T23:00:21.473Z,27.77
2022-08-19T23:02:52.293Z,25.77
2022-08-19T23:05:21.981Z,26.73
2022-08-19T23:07:52.412Z,24.35
2022-08-19T23:10:26.728Z,24.42
2022-08-19T23:12:54.974Z,24.52
2022-08-19T23:15:24.208Z,22.90
2022-08-19T23:17:50.653Z,24.67
2022-08-19T23:20:17.242Z,26.70
2022-08-19T23:22:45.332Z,21.70
2022-08-19T23:25:14.868Z,21.60
2022-08-19T23:28:00.186Z,27.40
2022-08-19T23:30:26.791Z,21.30
2022-08-19T23:32:53.987Z,28.27
2022-08-19T23:35:20.412Z,23.25
2022-08-19T23:37:48.020Z,21.23
2022-08-19T23:40:16.393Z,25.45
2022-08-19T23:42:46.514Z,20.52
2022-08-19T23:45:13.347Z,27.92
2022-08-19T23:47:41.281Z,26.05
2022-08-19T23:50:08.487Z,24.77
2022-08-19T23:52:42.055Z,26.02
2022-08-19T23:55:08.645Z,28.75
2022-08-19T23:57:35.071Z,29.90
